Time;durP1;ratioP1;P1;durP2;ratioP2;P2;SDS_P1;SDS_P2;PMS_P1;PMS_P2;Temp;Humidity;BMP_temperature;BMP_pressure;BME280_temperature;BME280_humidity;BME280_pressure;Samples;Min_cycle;Max_cycle;Signal;HPM_P1;HPM_P2
2023/01/06 00:00:30;;;;;;;6.72;2.03;;;;;;;3.27;75.42;101816.75;5107503;28;20035;-65
2023/01/06 00:02:55;;;;;;;6.15;2.08;;;;;;;3.52;75.74;101844.84;5100494;28;20035;-66
2023/01/06 00:05:21;;;;;;;9.90;1.90;;;;;;;3.26;75.31;101809.75;5111192;28;20063;-65
2023/01/06 00:07:51;;;;;;;5.60;1.42;;;;;;;3.49;75.26;101836.28;5100191;28;20037;-66
2023/01/06 00:10:19;;;;;;;4.68;1.58;;;;;;;3.57;74.67;101857.75;5107316;28;20016;-66
2023/01/06 00:12:46;;;;;;;4.80;1.83;;;;;;;3.49;74.71;101849.59;5113276;28;20027;-66
2023/01/06 00:15:12;;;;;;;6.07;1.90;;;;;;;3.29;75.73;101830.78;5101784;28;20040;-65
2023/01/06 00:17:37;;;;;;;5.82;1.77;;;;;;;3.49;74.83;101844.25;5116662;28;20065;-66
2023/01/06 00:20:04;;;;;;;4.50;1.70;;;;;;;3.54;74.47;101834.06;5106393;28;20027;-65
2023/01/06 00:22:29;;;;;;;5.40;1.73;;;;;;;3.47;74.46;101840.88;5107660;28;20144;-67
2023/01/06 00:24:54;;;;;;;3.97;1.58;;;;;;;3.38;74.52;101833.66;5114869;28;20078;-67
2023/01/06 00:27:20;;;;;;;5.63;1.88;;;;;;;3.34;75.27;101834.88;5103256;28;20024;-67
2023/01/06 00:29:47;;;;;;;5.18;2.00;;;;;;;3.41;75.38;101826.28;5113749;28;20038;-66
2023/01/06 00:32:13;;;;;;;6.70;1.88;;;;;;;3.30;75.47;101824.50;5108662;28;20028;-67
2023/01/06 00:34:38;;;;;;;5.70;2.10;;;;;;;3.23;75.56;101819.81;5107422;28;20115;-65
2023/01/06 00:37:04;;;;;;;3.60;1.45;;;;;;;3.25;75.54;101810.75;5116202;28;20035;-65
2023/01/06 00:39:29;;;;;;;3.78;1.50;;;;;;;3.37;75.50;101808.88;5101814;28;20455;-67
2023/01/06 00:42:04;;;;;;;6.43;1.80;;;;;;;3.29;75.55;101801.53;5112296;28;20031;-65
2023/01/06 00:44:30;;;;;;;;;;;;;;;3.22;74.60;101805.69;5110228;28;20118;-65
2023/01/06 00:46:56;;;;;;;6.13;1.90;;;;;;;2.92;76.12;101802.88;5103936;28;20413;-67
2023/01/06 00:49:21;;;;;;;5.90;1.73;;;;;;;3.12;76.00;101798.59;5115141;28;20074;-65
2023/01/06 00:51:47;;;;;;;4.90;1.70;;;;;;;2.93;74.65;101775.31;5105057;28;20047;-65
2023/01/06 00:54:14;;;;;;;4.95;2.00;;;;;;;3.29;75.19;101790.06;5109614;28;20111;-65
2023/01/06 00:56:45;;;;;;;7.15;1.80;;;;;;;2.98;75.42;101752.72;5111706;28;20072;-65
2023/01/06 00:59:13;;;;;;;3.47;1.60;;;;;;;3.27;75.16;101792.81;5102398;28;20027;-66
2023/01/06 01:01:39;;;;;;;5.72;1.80;;;;;;;3.19;75.81;101787.31;5114117;28;20020;-66
2023/01/06 01:04:05;;;;;;;5.93;1.70;;;;;;;3.03;75.05;101753.16;5107054;28;20032;-65
2023/01/06 01:06:31;;;;;;;4.90;1.73;;;;;;;3.03;76.03;101777.09;5124231;27;20024;-65
2023/01/06 01:08:58;;;;;;;4.60;1.60;;;;;;;2.87;76.56;101775.81;5114212;28;20061;-67
2023/01/06 01:14:09;;;;;;;5.47;1.77;;;;;;;3.21;74.94;101760.56;5111696;28;20035;-65
2023/01/06 01:16:34;;;;;;;4.43;1.60;;;;;;;2.92;75.59;101731.09;5110997;28;20031;-65
2023/01/06 01:19:00;;;;;;;4.30;1.75;;;;;;;3.11;75.65;101764.97;5102664;28;20497;-65
2023/01/06 01:21:25;;;;;;;8.02;1.80;;;;;;;3.08;75.05;101760.78;5114470;28;20122;-65
2023/01/06 01:23:50;;;;;;;4.90;1.73;;;;;;;3.16;75.39;101752.16;5107272;28;20024;-65
2023/01/06 01:26:16;;;;;;;8.23;2.05;;;;;;;2.72;75.78;101744.22;5107714;28;20539;-65
2023/01/06 01:28:42;;;;;;;5.13;1.52;;;;;;;3.00;75.45;101733.94;5106388;28;20266;-65
2023/01/06 01:31:08;;;;;;;5.30;1.83;;;;;;;2.97;76.14;101737.69;5114884;28;20039;-66
2023/01/06 01:33:33;;;;;;;4.13;1.73;;;;;;;3.04;75.25;101735.38;5101836;28;20059;-65
2023/01/06 01:36:13;;;;;;;4.78;1.70;;;;;;;3.15;75.17;101739.84;5112429;28;20024;-65
2023/01/06 01:38:38;;;;;;;5.35;1.67;;;;;;;3.03;75.40;101733.69;5110844;28;20031;-66
2023/01/06 01:41:04;;;;;;;5.75;1.92;;;;;;;2.87;76.78;101735.94;5102308;28;20062;-66
2023/01/06 01:44:22;;;;;;;5.85;2.05;;;;;;;3.12;75.71;101732.09;5114152;28;20031;-65
2023/01/06 01:46:48;;;;;;;3.63;1.52;;;;;;;2.94;75.54;101715.84;5042476;28;20123;-65
2023/01/06 01:49:19;;;;;;;8.07;1.60;;;;;;;2.89;76.59;101715.41;5114129;28;20083;-66
2023/01/06 01:51:46;;;;;;;4.25;1.55;;;;;;;2.72;76.69;101709.66;5102856;28;20028;-66
2023/01/06 01:54:20;;;;;;;3.28;1.58;;;;;;;2.65;76.15;101700.50;5110355;28;20032;-65
2023/01/06 01:56:52;;;;;;;4.60;1.42;;;;;;;2.89;76.59;101700.28;5109940;28;20094;-67
2023/01/06 01:59:26;;;;;;;5.82;1.95;;;;;;;2.63;75.85;101675.84;5101706;28;20450;-66
2023/01/06 02:01:51;;;;;;;4.32;2.25;;;;;;;2.15;77.50;101678.00;5112737;28;20183;-65
2023/01/06 02:04:19;;;;;;;4.68;1.85;;;;;;;2.79;76.52;101688.75;5109997;28;20152;-66
2023/01/06 02:06:49;;;;;;;5.75;1.73;;;;;;;2.84;75.90;101683.88;5107391;28;20123;-66
2023/01/06 02:09:41;;;;;;;2.55;1.50;;;;;;;2.93;75.54;101695.56;5117089;28;20407;-65
2023/01/06 02:12:06;;;;;;;6.07;1.70;;;;;;;2.98;75.40;101698.66;5076582;28;20039;-65
2023/01/06 02:14:32;;;;;;;8.20;1.80;;;;;;;2.88;75.52;101701.28;5108079;28;20114;-66
2023/01/06 02:17:00;;;;;;;4.95;1.60;;;;;;;2.95;75.87;101702.44;5112815;28;20023;-65
2023/01/06 02:19:49;;;;;;;4.57;1.58;;;;;;;2.99;75.34;101705.69;5099556;28;20403;-65
2023/01/06 02:22:23;;;;;;;4.45;1.73;;;;;;;3.07;75.68;101689.94;5111438;27;20032;-65
2023/01/06 02:24:49;;;;;;;4.38;1.52;;;;;;;3.09;75.54;101697.78;5109739;28;20406;-65
2023/01/06 02:27:23;;;;;;;5.32;1.70;;;;;;;2.80;75.89;101683.28;5098235;28;20032;-64
2023/01/06 02:30:33;;;;;;;5.15;1.73;;;;;;;2.86;75.89;101689.06;5111502;28;20394;-65
2023/01/06 02:33:09;;;;;;;4.60;1.67;;;;;;;2.88;75.85;101685.31;5032792;28;20037;-67
2023/01/06 02:36:02;;;;;;;5.63;1.63;;;;;;;2.83;76.28;101676.88;5016171;28;20041;-65
2023/01/06 02:38:48;;;;;;;4.88;1.90;;;;;;;2.99;75.48;101673.78;5089741;28;20040;-66
2023/01/06 02:41:19;;;;;;;5.28;1.73;;;;;;;2.79;75.37;101673.63;5097577;28;20031;-66
2023/01/06 02:44:03;;;;;;;5.50;1.85;;;;;;;2.65;76.60;101658.00;5112401;28;20048;-66
2023/01/06 02:46:53;;;;;;;3.35;1.67;;;;;;;2.86;76.29;101650.03;5105652;28;20050;-64
2023/01/06 02:49:26;;;;;;;3.65;2.17;;;;;;;2.79;76.32;101640.91;5096431;28;20059;-67
2023/01/06 02:52:01;;;;;;;5.13;1.70;;;;;;;2.79;76.25;101647.06;5106284;28;20039;-66
2023/01/06 02:54:52;;;;;;;5.85;1.70;;;;;;;2.87;75.79;101621.63;5101894;28;20051;-66
2023/01/06 02:57:41;;;;;;;5.68;1.60;;;;;;;2.87;76.18;101632.28;5096981;28;20463;-66
2023/01/06 03:00:19;;;;;;;3.95;1.65;;;;;;;2.86;76.43;101627.94;5109618;28;20052;-65
2023/01/06 03:02:51;;;;;;;4.03;1.40;;;;;;;3.00;75.14;101624.94;5109412;28;20375;-65
2023/01/06 03:05:17;;;;;;;5.90;1.80;;;;;;;2.72;75.39;101615.81;5100523;28;20099;-66
2023/01/06 03:07:45;;;;;;;4.10;1.80;;;;;;;3.02;75.75;101610.56;5112406;28;20055;-66
2023/01/06 03:10:15;;;;;;;2.80;1.70;;;;;;;3.06;75.97;101608.47;5104882;28;20028;-66
2023/01/06 03:12:50;;;;;;;5.35;1.80;;;;;;;2.61;75.54;101587.44;5104797;28;20031;-66
2023/01/06 03:15:15;;;;;;;3.58;1.58;;;;;;;2.68;76.27;101590.44;5112256;28;20028;-65
2023/01/06 03:17:41;;;;;;;3.70;1.83;;;;;;;2.85;75.91;101589.00;5099945;28;20053;-66
2023/01/06 03:20:07;;;;;;;4.50;1.95;;;;;;;2.69;76.59;101561.09;5110007;28;20401;-66
2023/01/06 03:22:37;;;;;;;5.45;1.63;;;;;;;2.74;77.17;101566.84;5089576;28;20453;-66
2023/01/06 03:25:04;;;;;;;8.05;1.52;;;;;;;2.26;77.83;101540.78;5101003;28;20032;-66
2023/01/06 03:27:29;;;;;;;5.20;1.73;;;;;;;2.65;77.15;101553.50;5115960;28;20565;-65
2023/01/06 03:29:55;;;;;;;3.85;1.30;;;;;;;2.53;76.56;101544.75;5099157;28;20563;-66
2023/01/06 03:32:36;;;;;;;6.45;1.95;;;;;;;2.81;76.64;101541.47;5107106;28;20616;-66
2023/01/06 03:35:01;;;;;;;5.20;1.50;;;;;;;2.72;77.54;101526.28;5110602;28;20100;-66
2023/01/06 03:37:36;;;;;;;3.40;1.63;;;;;;;2.68;76.45;101527.53;5099740;28;20059;-65
2023/01/06 03:40:14;;;;;;;5.25;1.02;;;;;;;2.55;76.92;101497.63;5110821;28;20469;-65
2023/01/06 03:45:52;;;;;;;5.30;1.65;;;;;;;2.65;77.29;101519.81;5097319;28;20043;-65
2023/01/06 03:48:23;;;;;;;7.55;1.95;;;;;;;2.79;77.43;101516.81;5107903;28;20036;-65
2023/01/06 03:51:13;;;;;;;6.90;1.80;;;;;;;2.75;77.19;101507.44;5109384;28;20735;-66
2023/01/06 03:54:14;;;;;;;2.65;1.30;;;;;;;2.63;78.32;101494.34;5099873;28;20030;-66
2023/01/06 03:57:08;;;;;;;5.38;2.03;;;;;;;2.24;78.30;101486.94;5093543;28;20402;-65
2023/01/06 03:59:39;;;;;;;3.50;1.80;;;;;;;2.42;78.32;101499.63;5070971;28;20043;-66
2023/01/06 04:02:05;;;;;;;5.10;1.50;;;;;;;2.66;78.09;101478.16;5109442;28;20020;-65
2023/01/06 04:04:30;;;;;;;2.85;1.40;;;;;;;2.78;77.74;101475.28;5106749;28;20048;-67
2023/01/06 04:06:55;;;;;;;5.32;1.48;;;;;;;2.54;78.75;101474.69;5102384;28;20032;-68
2023/01/06 04:09:21;;;;;;;4.00;1.60;;;;;;;2.31;78.68;101439.47;5113197;28;20046;-67
2023/01/06 04:14:31;;;;;;;4.50;1.83;;;;;;;2.83;77.53;101449.13;5105065;28;20086;-65
2023/01/06 04:16:56;;;;;;;4.32;1.50;;;;;;;2.83;78.33;101451.78;5106354;28;20031;-65
2023/01/06 04:19:22;;;;;;;6.03;1.75;;;;;;;2.48;79.02;101440.69;5096760;28;20024;-67
2023/01/06 04:21:47;;;;;;;4.25;1.38;;;;;;;2.51;78.87;101437.78;5112056;28;20024;-66
2023/01/06 04:24:13;;;;;;;6.40;1.58;;;;;;;2.36;80.18;101434.63;5104886;28;20053;-66
2023/01/06 04:26:38;;;;;;;5.22;1.42;;;;;;;2.63;79.00;101404.84;5106185;28;20499;-66
2023/01/06 04:29:04;;;;;;;6.28;2.17;;;;;;;2.67;78.95;101430.16;5106014;28;20500;-65
2023/01/06 04:31:29;;;;;;;5.20;1.73;;;;;;;2.55;80.11;101418.81;5098040;28;20039;-67
2023/01/06 04:33:54;;;;;;;7.35;1.80;;;;;;;2.64;79.24;101400.38;5110117;28;20024;-66
2023/01/06 04:36:20;;;;;;;4.50;2.17;;;;;;;2.77;79.43;101414.28;5103142;28;20039;-66
2023/01/06 04:38:45;;;;;;;4.25;1.60;;;;;;;2.56;80.29;101409.84;5102464;28;20043;-65
2023/01/06 04:41:11;;;;;;;5.20;1.80;;;;;;;2.73;79.91;101415.53;5111941;28;20073;-66
2023/01/06 04:43:36;;;;;;;4.82;2.08;;;;;;;2.68;79.55;101415.94;5099353;28;20055;-66
2023/01/06 04:46:02;;;;;;;4.03;1.50;;;;;;;2.17;80.16;101350.38;5108004;28;20036;-65
2023/01/06 04:48:27;;;;;;;5.25;1.80;;;;;;;2.42;80.55;101407.53;5103825;28;20037;-66
2023/01/06 04:51:19;;;;;;;3.97;1.60;;;;;;;2.80;80.00;101406.03;5099048;28;20036;-66
2023/01/06 04:53:45;;;;;;;5.60;1.77;;;;;;;2.54;81.00;101392.34;5079821;28;20036;-65
2023/01/06 04:56:11;;;;;;;2.30;1.30;;;;;;;2.46;80.97;101377.09;5105956;28;20032;-66
2023/01/06 04:58:38;;;;;;;5.60;2.08;;;;;;;2.56;81.10;101387.75;5109590;28;20027;-66
2023/01/06 05:01:07;;;;;;;4.15;2.03;;;;;;;2.68;79.98;101360.13;5102486;28;20039;-70
2023/01/06 05:03:34;;;;;;;5.47;2.00;;;;;;;2.73;78.98;101363.22;5116352;28;20501;-66
2023/01/06 05:06:08;;;;;;;6.00;1.85;;;;;;;2.86;79.73;101359.47;5104074;28;20031;-65
2023/01/06 05:08:34;;;;;;;8.27;1.90;;;;;;;2.50;80.63;101359.06;5108915;27;20036;-65
2023/01/06 05:11:08;;;;;;;5.28;1.75;;;;;;;2.51;80.98;101337.66;5113978;28;20118;-66
2023/01/06 05:13:34;;;;;;;5.90;2.00;;;;;;;2.67;81.34;101353.09;5102354;28;20440;-66
2023/01/06 05:16:00;;;;;;;4.53;1.70;;;;;;;2.56;80.54;101345.25;5113561;28;20027;-65
2023/01/06 05:18:25;;;;;;;8.02;1.90;;;;;;;2.75;80.60;101340.00;5107126;28;20079;-66
2023/01/06 05:20:52;;;;;;;5.28;1.95;;;;;;;2.53;80.43;101305.66;5105908;28;20040;-66
2023/01/06 05:23:18;;;;;;;5.13;1.90;;;;;;;2.59;81.46;101334.34;5114578;28;20076;-65
2023/01/06 05:25:43;;;;;;;6.10;2.00;;;;;;;2.41;82.19;101327.97;5101285;28;20087;-65
2023/01/06 05:28:09;;;;;;;7.13;2.30;;;;;;;2.21;84.51;101319.91;5110476;28;20035;-67
2023/01/06 05:30:34;;;;;;;5.68;1.88;;;;;;;2.48;82.75;101294.59;5109912;28;20031;-65
2023/01/06 05:33:00;;;;;;;6.03;1.75;;;;;;;2.55;83.06;101306.34;5104951;28;20532;-66
2023/01/06 05:35:26;;;;;;;4.75;1.70;;;;;;;2.16;83.74;101263.72;5114222;28;20091;-64
2023/01/06 05:37:55;;;;;;;4.75;2.03;;;;;;;2.33;84.40;101292.31;5103630;28;20122;-65
2023/01/06 05:40:20;;;;;;;3.60;1.92;;;;;;;2.65;82.75;101280.69;5109932;28;20043;-72
2023/01/06 05:42:45;;;;;;;7.55;2.33;;;;;;;2.68;82.44;101274.22;5109978;28;20019;-66
2023/01/06 05:45:11;;;;;;;5.80;2.05;;;;;;;2.40;83.10;101236.84;5102840;28;20118;-66
2023/01/06 05:47:36;;;;;;;7.05;2.20;;;;;;;2.68;82.38;101250.31;5115542;28;20019;-66
2023/01/06 05:50:03;;;;;;;4.72;1.90;;;;;;;2.53;83.15;101242.75;5103977;28;20100;-66
2023/01/06 05:52:28;;;;;;;6.25;1.90;;;;;;;2.22;84.66;101249.06;5107819;28;20035;-65
2023/01/06 05:54:54;;;;;;;7.70;3.10;;;;;;;2.43;83.96;101241.88;5111875;28;20028;-67
2023/01/06 05:57:19;;;;;;;6.25;1.98;;;;;;;2.33;84.55;101235.72;5100682;28;20093;-64
2023/01/06 05:59:44;;;;;;;3.35;1.50;;;;;;;2.14;84.35;101223.19;5113631;28;20036;-65
2023/01/06 06:02:10;;;;;;;6.57;2.25;;;;;;;2.25;84.44;101212.50;5105660;28;20045;-68
2023/01/06 06:04:35;;;;;;;6.00;2.17;;;;;;;2.15;83.37;101163.81;5106660;28;20032;-68
2023/01/06 06:07:00;;;;;;;5.72;2.05;;;;;;;2.37;83.70;101191.13;5112686;28;20164;-65
2023/01/06 06:09:26;;;;;;;5.55;1.38;;;;;;;2.39;82.96;101192.69;5100529;28;20032;-66
2023/01/06 06:11:53;;;;;;;4.93;1.80;;;;;;;2.34;83.64;101200.19;5114096;28;20055;-65
2023/01/06 06:14:19;;;;;;;8.23;2.55;;;;;;;2.48;82.89;101191.00;5106341;28;20027;-67
2023/01/06 06:16:44;;;;;;;6.45;1.95;;;;;;;2.63;82.48;101188.81;5105244;28;20046;-67
2023/01/06 06:19:11;;;;;;;6.32;2.15;;;;;;;2.61;82.79;101185.44;5113686;28;20047;-65
2023/01/06 06:21:37;;;;;;;4.78;2.00;;;;;;;2.46;82.77;101179.69;5101538;28;20032;-67
2023/01/06 06:24:02;;;;;;;3.50;1.60;;;;;;;2.28;83.39;101137.84;5112346;28;20085;-66
2023/01/06 06:26:28;;;;;;;6.50;2.13;;;;;;;2.33;83.89;101164.84;5106604;28;20056;-66
2023/01/06 06:28:54;;;;;;;6.43;1.73;;;;;;;2.41;84.46;101165.97;5103611;28;20036;-68
2023/01/06 06:31:27;;;;;;;4.40;1.63;;;;;;;2.38;84.28;101166.25;5113870;28;20036;-66
2023/01/06 06:33:55;;;;;;;10.30;2.40;;;;;;;2.59;83.11;101161.69;5102863;28;20074;-65
2023/01/06 06:36:41;;;;;;;6.57;2.65;;;;;;;2.48;83.10;101161.78;5108023;28;20424;-64
2023/01/06 06:39:06;;;;;;;4.45;2.17;;;;;;;2.30;83.01;101116.47;5055292;28;20045;-65
2023/01/06 06:41:31;;;;;;;6.80;2.30;;;;;;;2.38;84.08;101148.50;5056530;28;20091;-67
2023/01/06 06:43:57;;;;;;;4.10;1.65;;;;;;;2.38;83.93;101137.03;5075264;28;20495;-68
2023/01/06 06:46:22;;;;;;;5.68;2.00;;;;;;;1.92;84.26;101114.56;5038358;28;20037;-65
2023/01/06 06:48:51;;;;;;;9.40;2.35;;;;;;;2.29;83.97;101134.22;5050559;28;20454;-64
2023/01/06 06:51:20;;;;;;;6.70;2.10;;;;;;;2.24;84.63;101123.16;5074820;28;20032;-65
2023/01/06 06:53:46;;;;;;;5.63;2.25;;;;;;;2.21;84.54;101110.16;5041936;28;20058;-67
2023/01/06 06:56:15;;;;;;;7.43;1.83;;;;;;;2.32;84.30;101110.06;5074634;28;20032;-65
2023/01/06 06:58:41;;;;;;;4.47;1.85;;;;;;;1.70;84.38;101023.63;5058302;28;20059;-66
2023/01/06 07:01:09;;;;;;;3.60;1.77;;;;;;;1.72;88.28;101095.94;5058524;28;20056;-81
2023/01/06 07:03:34;;;;;;;4.75;1.70;;;;;;;1.95;87.76;101079.81;5074551;28;20502;-66
2023/01/06 07:06:02;;;;;;;6.78;2.25;;;;;;;1.78;88.22;101073.34;5058283;28;20052;-65
2023/01/06 07:08:27;;;;;;;5.00;2.17;;;;;;;1.64;90.60;101058.66;5058116;28;20055;-65
2023/01/06 07:10:53;;;;;;;5.18;1.77;;;;;;;1.70;90.41;101058.13;5106868;28;20043;-66
2023/01/06 07:13:18;;;;;;;5.95;2.63;;;;;;;1.83;88.48;101026.88;5100344;28;20036;-65
2023/01/06 07:15:46;;;;;;;6.18;2.35;;;;;;;1.93;88.71;101056.06;5112587;28;20052;-68
2023/01/06 07:18:12;;;;;;;6.13;2.05;;;;;;;1.71;88.42;101022.63;5104385;28;20039;-65
2023/01/06 07:20:37;;;;;;;5.50;2.25;;;;;;;2.01;88.00;101037.63;5105632;28;20391;-65
2023/01/06 07:23:03;;;;;;;4.40;1.70;;;;;;;2.01;87.78;101016.41;5110466;28;20133;-65
2023/01/06 07:25:30;;;;;;;5.57;2.20;;;;;;;2.15;87.23;101027.59;5100563;28;20050;-65
2023/01/06 07:27:57;;;;;;;6.15;2.55;;;;;;;1.99;87.39;100997.16;5112750;28;20035;-67
2023/01/06 07:30:24;;;;;;;8.48;2.35;;;;;;;2.03;87.59;101001.19;5106141;28;20394;-65
2023/01/06 07:32:50;;;;;;;5.05;1.90;;;;;;;1.91;88.92;100972.25;5103651;28;20548;-66
2023/01/06 07:35:16;;;;;;;3.45;1.48;;;;;;;1.82;89.29;100982.75;5112446;28;20058;-65
2023/01/06 07:37:41;;;;;;;7.63;2.15;;;;;;;1.87;88.67;100959.28;5100677;28;20027;-65
2023/01/06 07:40:07;;;;;;;4.90;1.67;;;;;;;1.71;88.85;100945.72;5110112;28;20055;-64
2023/01/06 07:42:35;;;;;;;5.90;1.50;;;;;;;1.92;89.37;100960.66;5106243;28;20057;-64
2023/01/06 07:45:01;;;;;;;7.03;2.20;;;;;;;1.57;89.07;100922.25;5103421;28;20034;-64
2023/01/06 07:47:27;;;;;;;6.30;2.83;;;;;;;1.75;89.20;100925.88;5103878;28;20402;-65
2023/01/06 07:49:52;;;;;;;5.15;1.73;;;;;;;2.01;88.11;100925.34;5112772;28;20031;-65
2023/01/06 07:52:18;;;;;;;4.70;2.30;;;;;;;2.33;87.59;100939.13;5088068;28;20032;-63
2023/01/06 07:54:43;;;;;;;4.70;2.03;;;;;;;2.29;86.94;100931.59;5104393;28;20085;-68
2023/01/06 07:57:08;;;;;;;4.60;1.95;;;;;;;2.29;87.40;100935.09;5111433;28;20066;-66
2023/01/06 07:59:34;;;;;;;7.38;2.03;;;;;;;2.19;88.15;100930.78;5100241;28;20130;-68
2023/01/06 08:01:59;;;;;;;4.15;1.85;;;;;;;2.11;88.03;100934.94;5112285;28;20107;-66
2023/01/06 08:04:25;;;;;;;6.70;2.30;;;;;;;2.10;87.38;100890.81;5106011;28;20039;-65
2023/01/06 08:06:50;;;;;;;3.38;2.05;;;;;;;2.02;87.64;100890.72;5102943;28;20028;-65
2023/01/06 08:09:15;;;;;;;7.75;2.30;;;;;;;2.27;87.96;100920.28;5112619;28;20038;-65
2023/01/06 08:11:41;;;;;;;6.93;2.50;;;;;;;2.26;88.26;100916.78;5099435;28;20446;-67
2023/01/06 08:14:06;;;;;;;6.50;2.70;;;;;;;2.15;91.99;100905.47;5126465;27;20043;-70
2023/01/06 08:16:32;;;;;;;6.82;2.33;;;;;;;2.29;91.39;100891.78;5104415;28;20442;-65
2023/01/06 08:18:57;;;;;;;4.47;2.22;;;;;;;1.93;90.77;100893.38;5118751;28;20052;-69
2023/01/06 08:21:23;;;;;;;8.10;2.75;;;;;;;2.27;89.34;100894.56;5112980;28;20031;-68
2023/01/06 08:23:48;;;;;;;7.10;2.33;;;;;;;2.26;89.33;100874.31;5100032;28;20102;-66
2023/01/06 08:26:16;;;;;;;3.83;1.70;;;;;;;2.16;89.11;100880.63;5108532;28;20123;-66
2023/01/06 08:28:44;;;;;;;4.78;2.33;;;;;;;2.12;89.78;100872.13;5107683;28;20055;-64
2023/01/06 08:31:16;;;;;;;7.10;2.20;;;;;;;2.23;89.23;100871.94;5101982;28;20047;-65
2023/01/06 08:33:42;;;;;;;4.05;1.80;;;;;;;1.96;90.51;100850.63;5118183;28;20036;-68
2023/01/06 08:36:14;;;;;;;4.93;1.80;;;;;;;1.73;91.91;100858.88;5106524;28;20058;-69
2023/01/06 08:38:40;;;;;;;4.78;2.13;;;;;;;2.14;90.70;100870.13;5110948;28;20028;-66
2023/01/06 08:41:06;;;;;;;6.97;2.53;;;;;;;2.10;90.18;100834.25;5115792;28;20020;-67
2023/01/06 08:43:32;;;;;;;7.32;2.15;;;;;;;2.00;90.03;100830.78;5104545;28;20398;-66
2023/01/06 08:46:02;;;;;;;5.45;1.60;;;;;;;2.16;89.58;100832.84;5097681;28;20028;-65
2023/01/06 08:48:28;;;;;;;7.38;2.15;;;;;;;1.97;89.95;100829.25;5108739;28;20103;-65
2023/01/06 08:51:16;;;;;;;6.25;2.53;;;;;;;2.09;91.58;100829.94;5107263;28;20036;-65
2023/01/06 08:53:42;;;;;;;3.33;1.92;;;;;;;2.03;91.25;100822.53;5061032;28;20491;-67
2023/01/06 08:56:19;;;;;;;3.90;2.05;;;;;;;2.04;91.85;100827.69;5078361;28;20086;-67
2023/01/06 08:58:49;;;;;;;5.65;2.28;;;;;;;1.81;91.59;100790.03;5077310;28;20426;-67
2023/01/06 09:01:20;;;;;;;7.38;2.72;;;;;;;2.19;90.91;100812.16;5077678;28;20032;-66
2023/01/06 09:03:45;;;;;;;7.03;2.38;;;;;;;1.71;92.39;100775.13;5060603;28;20123;-66
2023/01/06 09:06:10;;;;;;;8.27;2.60;;;;;;;1.84;92.67;100796.88;5060372;28;20052;-65
2023/01/06 09:08:36;;;;;;;8.32;3.25;;;;;;;1.99;92.72;100805.22;5076811;28;20068;-67
2023/01/06 09:11:06;;;;;;;3.95;2.25;;;;;;;2.03;91.79;100780.06;5060331;28;20055;-66
2023/01/06 09:13:33;;;;;;;5.43;1.77;;;;;;;1.67;95.84;100782.50;5077428;28;20044;-65
2023/01/06 09:15:59;;;;;;;8.32;2.42;;;;;;;2.00;96.25;100783.84;5062462;28;20097;-67
2023/01/06 09:18:24;;;;;;;5.45;2.22;;;;;;;1.76;96.56;100771.06;5077859;28;20112;-66
2023/01/06 09:20:50;;;;;;;6.15;2.35;;;;;;;1.99;94.99;100776.03;5077930;28;20049;-66
2023/01/06 09:23:15;;;;;;;2.58;1.63;;;;;;;1.75;95.21;100740.19;5062297;28;20029;-66
2023/01/06 09:25:40;;;;;;;4.30;2.15;;;;;;;1.90;95.51;100747.72;5081042;28;20051;-67
2023/01/06 09:28:06;;;;;;;5.60;2.42;;;;;;;1.92;94.54;100720.06;5114625;28;20056;-66
2023/01/06 09:30:31;;;;;;;3.22;1.98;;;;;;;1.70;95.98;100710.63;5109481;28;20032;-66
2023/01/06 09:32:57;;;;;;;4.43;1.77;;;;;;;1.84;95.67;100718.09;5105698;28;20035;-67
2023/01/06 09:35:22;;;;;;;7.70;2.10;;;;;;;2.05;94.54;100698.47;5117932;28;20114;-66
2023/01/06 09:37:51;;;;;;;3.30;1.50;;;;;;;1.90;94.86;100684.84;5102931;28;20049;-67
2023/01/06 09:40:22;;;;;;;3.22;1.70;;;;;;;1.49;96.01;100671.03;5112114;28;20024;-69
2023/01/06 09:42:58;;;;;;;2.92;1.80;;;;;;;1.64;95.46;100636.94;5109761;28;20023;-69
2023/01/06 09:45:37;;;;;;;3.88;2.00;;;;;;;1.85;94.26;100671.19;5101153;27;20398;-68
2023/01/06 09:48:05;;;;;;;5.30;1.75;;;;;;;2.03;93.79;100673.91;5111349;28;20020;-68
2023/01/06 09:50:39;;;;;;;3.67;1.58;;;;;;;2.18;92.92;100663.63;5102223;28;20048;-67
2023/01/06 09:53:15;;;;;;;3.90;1.70;;;;;;;2.19;93.59;100647.56;5113348;28;20028;-68
2023/01/06 09:55:44;;;;;;;3.70;1.95;;;;;;;2.23;94.51;100659.56;5101841;27;20035;-67
2023/01/06 09:58:16;;;;;;;3.33;1.50;;;;;;;1.86;94.61;100607.38;5111416;28;20098;-74
2023/01/06 10:00:44;;;;;;;5.07;1.98;;;;;;;2.39;93.53;100655.41;5097895;28;20503;-68
2023/01/06 10:03:18;;;;;;;3.65;1.90;;;;;;;2.17;93.96;100641.56;5115238;28;20425;-67
2023/01/06 10:05:49;;;;;;;2.88;1.33;;;;;;;2.34;93.10;100624.81;5103062;28;20028;-68
2023/01/06 10:08:35;;;;;;;3.20;1.73;;;;;;;2.57;91.83;100656.25;5113572;28;20064;-68
2023/01/06 10:11:19;;;;;;;3.40;1.80;;;;;;;2.65;91.56;100624.47;5112848;28;20027;-67
2023/01/06 10:14:12;;;;;;;4.43;2.13;;;;;;;2.45;92.32;100615.81;5103983;28;20367;-87
2023/01/06 10:16:59;;;;;;;2.83;1.50;;;;;;;2.42;93.18;100599.31;5113498;28;20032;-82
2023/01/06 10:19:59;;;;;;;3.63;1.60;;;;;;;2.45;92.95;100593.72;5115638;28;20046;-68
2023/01/06 10:22:39;;;;;;;2.22;1.40;;;;;;;2.23;94.72;100598.50;5106699;28;20027;-67
2023/01/06 10:25:41;;;;;;;3.72;1.70;;;;;;;2.53;93.43;100612.41;5104647;28;20027;-67
2023/01/06 10:28:28;;;;;;;5.22;2.05;;;;;;;2.39;93.94;100573.09;5089444;28;20044;-67
2023/01/06 10:31:00;;;;;;;3.58;1.55;;;;;;;2.25;96.05;100531.97;5106861;28;20093;-67
2023/01/06 10:33:29;;;;;;;2.35;1.40;;;;;;;2.42;95.68;100592.22;5115555;28;20138;-67
2023/01/06 10:35:56;;;;;;;5.25;1.95;;;;;;;2.59;94.46;100574.59;5103862;28;20390;-67
2023/01/06 10:38:27;;;;;;;3.80;1.70;;;;;;;2.37;94.55;100559.97;5111667;28;20448;-67
2023/01/06 10:41:03;;;;;;;2.47;1.70;;;;;;;2.51;94.15;100550.63;5112015;28;20031;-67
2023/01/06 10:43:29;;;;;;;5.95;1.88;;;;;;;2.74;93.09;100573.06;5102461;28;20039;-67
2023/01/06 10:45:54;;;;;;;3.17;1.65;;;;;;;2.65;93.54;100568.69;5114793;28;20024;-67
2023/01/06 10:48:24;;;;;;;3.30;1.80;;;;;;;2.69;92.51;100530.19;5087892;28;20031;-67
2023/01/06 10:50:50;;;;;;;3.20;1.92;;;;;;;2.82;92.73;100564.34;5107092;28;20462;-67
2023/01/06 10:53:16;;;;;;;3.50;1.80;;;;;;;3.08;91.66;100560.84;5113908;28;20047;-67
2023/01/06 10:55:59;;;;;;;2.90;1.77;;;;;;;2.82;93.50;100553.69;5099909;28;20099;-67
2023/01/06 10:58:44;;;;;;;4.68;1.88;;;;;;;2.96;92.48;100549.66;5110647;28;20054;-67
2023/01/06 11:01:14;;;;;;;3.53;1.90;;;;;;;2.96;93.00;100541.66;5112450;28;20023;-67
2023/01/06 11:03:41;;;;;;;5.15;1.70;;;;;;;2.96;92.85;100539.00;5101729;28;20024;-67
2023/01/06 11:06:25;;;;;;;2.95;1.92;;;;;;;3.08;92.36;100540.44;5112395;28;20047;-67
2023/01/06 11:08:51;;;;;;;3.53;1.60;;;;;;;2.99;92.34;100523.59;5108598;28;20023;-66
2023/01/06 11:11:18;;;;;;;4.57;1.70;;;;;;;2.91;93.31;100514.72;5104355;28;20028;-66
2023/01/06 11:14:00;;;;;;;4.07;1.70;;;;;;;2.99;93.21;100528.91;5114525;28;20059;-67
2023/01/06 11:16:34;;;;;;;3.63;1.48;;;;;;;3.08;92.90;100523.63;5107832;28;20030;-67
2023/01/06 11:19:03;;;;;;;2.83;1.60;;;;;;;3.03;92.61;100518.78;5104379;28;20121;-72
2023/01/06 11:21:41;;;;;;;6.30;1.55;;;;;;;3.03;93.44;100524.94;5113789;28;20038;-67
2023/01/06 11:24:23;;;;;;;3.92;2.05;;;;;;;3.17;91.97;100522.69;5102643;28;20076;-66
2023/01/06 11:26:56;;;;;;;4.18;1.48;;;;;;;3.26;91.53;100519.91;5107938;28;20028;-67
2023/01/06 11:29:29;;;;;;;2.88;1.58;;;;;;;3.18;92.40;100522.53;5101442;28;20502;-66
2023/01/06 11:31:58;;;;;;;3.15;1.80;;;;;;;3.15;92.02;100504.25;5090972;28;20398;-65
2023/01/06 11:34:27;;;;;;;1.88;1.00;;;;;;;3.08;92.36;100503.22;5106009;28;20417;-67
2023/01/06 11:36:54;;;;;;;4.07;1.60;;;;;;;3.25;92.08;100514.75;5106591;28;20047;-67
2023/01/06 11:39:40;;;;;;;2.60;1.40;;;;;;;3.12;93.16;100512.53;5111377;28;20076;-66
2023/01/06 11:42:13;;;;;;;1.67;1.13;;;;;;;3.09;93.57;100515.50;5111782;28;20027;-67
2023/01/06 11:44:41;;;;;;;3.03;1.80;;;;;;;3.19;93.84;100518.88;5102223;28;20039;-70
2023/01/06 11:47:12;;;;;;;1.98;1.23;;;;;;;3.19;93.78;100518.88;5107577;28;20043;-66
2023/01/06 11:49:46;;;;;;;2.47;1.60;;;;;;;3.31;92.67;100527.41;5115185;28;20031;-66
2023/01/06 11:52:24;;;;;;;3.22;1.77;;;;;;;3.34;92.89;100520.94;5102679;28;20047;-80
2023/01/06 11:55:07;;;;;;;2.83;1.70;;;;;;;3.43;92.92;100531.44;5106881;28;20031;-70